Time;durP1;ratioP1;P1;durP2;ratioP2;P2;SDS_P1;SDS_P2;PMS_P1;PMS_P2;Temp;Humidity;BMP_temperature;BMP_pressure;BME280_temperature;BME280_humidity;BME280_pressure;Samples;Min_cycle;Max_cycle;Signal;HPM_P1;HPM_P2
2022/01/17 00:01:11;;;;;;;73.87;43.33;;;;;;;3.72;61.16;95166.66;5114179;28;20293;-76
2022/01/17 00:03:38;;;;;;;77.77;42.30;;;;;;;3.71;61.27;95154.91;5111226;28;20181;-74
2022/01/17 00:06:05;;;;;;;72.43;42.73;;;;;;;3.70;61.47;95160.84;5111079;28;20208;-74
2022/01/17 00:08:34;;;;;;;76.80;43.77;;;;;;;3.70;61.43;95160.84;5111054;28;20220;-73
2022/01/17 00:11:01;;;;;;;74.00;42.73;;;;;;;3.69;61.44;95156.69;5110549;28;20189;-73
2022/01/17 00:13:29;;;;;;;68.90;41.73;;;;;;;3.67;61.59;95157.66;5110632;28;20598;-75
2022/01/17 00:16:03;;;;;;;76.23;45.10;;;;;;;3.61;61.11;95152.97;5110971;28;20226;-76
2022/01/17 00:19:03;;;;;;;74.43;42.27;;;;;;;3.66;61.52;95164.44;5111399;28;20185;-75
2022/01/17 00:21:28;;;;;;;75.10;43.40;;;;;;;3.65;61.68;95157.75;5110903;28;20195;-73
2022/01/17 00:23:56;;;;;;;76.40;41.67;;;;;;;3.66;61.63;95163.63;5110394;28;20662;-71
2022/01/17 00:26:23;;;;;;;73.63;43.17;;;;;;;3.66;61.63;95163.63;5110639;28;20192;-72
2022/01/17 00:28:51;;;;;;;75.37;41.83;;;;;;;3.64;61.72;95160.38;5110450;28;20212;-72
2022/01/17 00:31:17;;;;;;;69.10;40.70;;;;;;;3.65;61.80;95167.06;5110452;28;20325;-72
2022/01/17 00:33:44;;;;;;;60.37;39.07;;;;;;;3.64;61.55;95171.31;5110223;28;20192;-72
2022/01/17 00:36:11;;;;;;;66.00;40.63;;;;;;;3.63;61.74;95172.22;5110354;28;20185;-73
2022/01/17 00:38:38;;;;;;;66.70;39.60;;;;;;;3.57;61.71;95159.09;5110541;28;20192;-74
2022/01/17 00:41:06;;;;;;;70.73;40.90;;;;;;;3.60;61.46;95171.56;5109999;28;20632;-71
2022/01/17 00:43:35;;;;;;;72.20;41.13;;;;;;;3.60;61.79;95174.91;5110197;28;20185;-72
2022/01/17 00:46:01;;;;;;;65.03;39.83;;;;;;;3.61;61.70;95166.41;5110244;28;20193;-72
2022/01/17 00:48:29;;;;;;;64.10;38.57;;;;;;;3.53;61.71;95149.13;5110234;28;20212;-73
2022/01/17 00:50:56;;;;;;;67.83;38.00;;;;;;;3.62;61.64;95162.97;5109925;28;20192;-73
2022/01/17 00:53:22;;;;;;;67.97;38.83;;;;;;;3.61;61.65;95158.00;5110524;28;20185;-75
2022/01/17 00:55:49;;;;;;;66.97;37.00;;;;;;;3.61;61.77;95158.00;5109947;28;20186;-72
2022/01/17 00:58:18;;;;;;;63.63;37.60;;;;;;;3.59;61.48;95160.63;5110426;28;20204;-72
2022/01/17 01:00:45;;;;;;;62.17;37.00;;;;;;;3.57;61.79;95151.50;5110031;28;20193;-74
2022/01/17 01:03:12;;;;;;;58.70;35.50;;;;;;;3.53;61.74;95146.59;5109908;28;20201;-72
2022/01/17 01:05:39;;;;;;;63.77;37.80;;;;;;;3.51;61.67;95145.06;5109924;28;20192;-74
2022/01/17 01:08:06;;;;;;;65.90;37.13;;;;;;;3.55;61.89;95143.19;5110273;28;20205;-74
2022/01/17 01:10:34;;;;;;;63.40;35.93;;;;;;;3.55;61.72;95145.72;5114165;28;20220;-72
2022/01/17 01:13:01;;;;;;;62.77;37.47;;;;;;;3.53;61.80;95143.25;5113719;28;20185;-72
2022/01/17 01:18:38;;;;;;;55.93;35.03;;;;;;;3.51;61.82;95134.97;5087900;27;20543;-72
2022/01/17 01:29:18;;;;;;;59.33;37.43;;;;;;;3.45;61.94;95136.09;5087276;28;20189;-73
2022/01/17 01:31:49;;;;;;;66.83;38.70;;;;;;;3.45;62.10;95132.75;5087591;28;20200;-72
2022/01/17 01:34:19;;;;;;;66.60;37.60;;;;;;;3.44;62.08;95129.41;5087513;28;20190;-73
2022/01/17 01:36:48;;;;;;;63.73;36.57;;;;;;;3.44;61.80;95129.41;5087088;28;20225;-74
2022/01/17 01:39:21;;;;;;;61.87;36.63;;;;;;;3.32;61.96;95114.91;5087790;28;20216;-72
2022/01/17 01:41:48;;;;;;;67.53;37.43;;;;;;;3.44;61.97;95129.41;5087219;28;20691;-74
2022/01/17 01:44:17;;;;;;;68.70;38.33;;;;;;;3.47;61.95;95136.03;5087239;28;20284;-73
2022/01/17 01:46:45;;;;;;;64.50;37.53;;;;;;;3.40;61.97;95127.94;5087047;28;20193;-74
2022/01/17 01:49:12;;;;;;;62.57;37.03;;;;;;;3.43;61.85;95130.31;5087326;28;20201;-76
2022/01/17 01:51:41;;;;;;;66.03;39.03;;;;;;;3.43;62.02;95132.03;5086938;28;20190;-74
2022/01/17 01:54:08;;;;;;;68.63;38.77;;;;;;;3.42;62.05;95120.28;5087415;28;20239;-75
2022/01/17 01:56:36;;;;;;;61.07;36.63;;;;;;;3.38;61.82;95116.31;5086728;28;20218;-73
2022/01/17 01:59:03;;;;;;;65.13;37.87;;;;;;;3.42;61.94;95122.81;5086685;28;20190;-76
2022/01/17 02:01:30;;;;;;;65.97;37.77;;;;;;;3.35;61.99;95112.22;5086920;28;20190;-75
2022/01/17 02:03:57;;;;;;;61.20;37.13;;;;;;;3.39;61.96;95115.41;5086965;28;20193;-75
2022/01/17 02:06:24;;;;;;;62.27;37.93;;;;;;;3.33;61.87;95098.06;5086927;28;20194;-74
2022/01/17 02:08:52;;;;;;;65.80;39.33;;;;;;;3.38;61.85;95107.00;5086741;28;20190;-75
2022/01/17 02:11:20;;;;;;;67.23;38.53;;;;;;;3.34;61.98;95105.53;5086549;28;20201;-73
2022/01/17 02:13:47;;;;;;;69.87;40.63;;;;;;;3.16;61.97;95069.47;5086180;28;20200;-75
2022/01/17 02:16:16;;;;;;;66.00;38.23;;;;;;;3.34;62.19;95104.72;5086169;28;20243;-76
2022/01/17 02:18:44;;;;;;;63.23;36.00;;;;;;;3.24;62.15;95082.50;5086215;28;20197;-76
2022/01/17 02:21:19;;;;;;;64.20;36.77;;;;;;;3.35;62.06;95098.78;5086493;28;20201;-74
2022/01/17 02:23:48;;;;;;;63.27;37.30;;;;;;;3.31;62.19;95092.25;5086541;28;20182;-74
2022/01/17 02:26:16;;;;;;;72.07;38.50;;;;;;;3.34;62.20;95102.19;5086311;28;20190;-72
2022/01/17 02:28:46;;;;;;;63.87;37.37;;;;;;;3.34;62.15;95092.09;5078394;28;20194;-74
2022/01/17 02:31:13;;;;;;;58.47;35.90;;;;;;;3.27;62.31;95089.06;5072325;28;20183;-74
2022/01/17 02:33:40;;;;;;;54.77;33.73;;;;;;;3.33;62.34;95087.94;5072932;28;20852;-73
2022/01/17 02:36:08;;;;;;;63.73;37.03;;;;;;;3.33;62.30;95085.41;5073085;28;20194;-73
2022/01/17 02:38:36;;;;;;;61.23;37.00;;;;;;;3.31;62.40;95090.53;5072702;28;20616;-72
2022/01/17 02:41:03;;;;;;;60.73;34.83;;;;;;;3.32;62.30;95097.22;5072740;28;20684;-75
2022/01/17 02:43:32;;;;;;;61.67;34.80;;;;;;;3.32;62.20;95091.34;5072443;28;20186;-73
2022/01/17 02:48:43;;;;;;;52.43;31.37;;;;;;;3.32;62.43;95099.75;5072441;28;20209;-72
2022/01/17 02:51:11;;;;;;;58.50;33.27;;;;;;;3.31;62.55;95095.59;5072671;28;20187;-72
2022/01/17 02:53:41;;;;;;;60.33;34.40;;;;;;;3.34;62.12;95105.53;5072412;28;20308;-72
2022/01/17 02:56:09;;;;;;;56.73;34.67;;;;;;;3.35;62.17;95101.28;5072764;28;20269;-74
2022/01/17 02:58:37;;;;;;;58.80;36.53;;;;;;;3.24;62.09;95079.16;5071829;28;20229;-74
2022/01/17 03:01:07;;;;;;;58.90;35.47;;;;;;;3.33;62.33;95098.06;5072408;28;20190;-74
2022/01/17 03:03:34;;;;;;;55.10;34.03;;;;;;;3.33;62.32;95091.28;5072102;28;20212;-75
2022/01/17 03:06:01;;;;;;;60.97;34.00;;;;;;;3.19;62.19;95073.50;5072214;28;20183;-75
2022/01/17 03:08:30;;;;;;;54.17;31.93;;;;;;;3.33;62.31;95090.47;5071882;28;20197;-75
2022/01/17 03:11:00;;;;;;;53.53;32.27;;;;;;;3.32;62.37;95082.03;5071764;28;20198;-72
2022/01/17 03:13:32;;;;;;;47.63;29.47;;;;;;;3.34;62.18;95087.03;5071701;28;20575;-74
2022/01/17 03:16:01;;;;;;;55.10;30.93;;;;;;;3.33;62.19;95082.88;5071792;28;20618;-74
2022/01/17 03:18:31;;;;;;;48.23;29.17;;;;;;;3.34;62.01;95070.16;5071536;28;20210;-74
2022/01/17 03:20:59;;;;;;;53.00;30.10;;;;;;;3.40;61.32;95086.69;5071857;28;20179;-74
2022/01/17 03:23:27;;;;;;;48.30;27.10;;;;;;;3.36;61.99;95080.97;5071432;28;20198;-74
2022/01/17 03:25:56;;;;;;;41.20;27.13;;;;;;;3.36;61.74;95072.59;5071524;28;20205;-75
2022/01/17 03:28:25;;;;;;;46.40;28.00;;;;;;;3.35;61.60;95068.44;5071364;28;20201;-74
2022/01/17 03:30:52;;;;;;;48.13;27.73;;;;;;;3.36;61.69;95075.94;5071380;28;20191;-75
2022/01/17 03:33:19;;;;;;;42.33;24.50;;;;;;;3.37;61.36;95086.84;5071243;28;20201;-75
2022/01/17 03:35:47;;;;;;;36.83;24.93;;;;;;;3.17;60.97;95053.38;5071404;28;20194;-75
2022/01/17 03:38:16;;;;;;;39.77;24.40;;;;;;;3.35;61.19;95093.72;5071249;28;20225;-75
2022/01/17 03:40:46;;;;;;;40.50;24.87;;;;;;;3.37;61.20;95092.75;5070600;28;20190;-74
2022/01/17 03:43:13;;;;;;;40.07;25.00;;;;;;;3.37;61.08;95092.75;5071377;28;20564;-76
2022/01/17 03:45:41;;;;;;;43.93;27.17;;;;;;;3.39;61.07;95112.88;5071281;28;20190;-74
2022/01/17 03:48:08;;;;;;;45.50;27.80;;;;;;;3.38;60.99;95114.59;5071218;28;20252;-74
2022/01/17 03:50:35;;;;;;;53.77;28.63;;;;;;;3.41;61.02;95100.94;5071271;28;20220;-75
2022/01/17 03:53:02;;;;;;;47.07;25.97;;;;;;;3.38;60.93;95109.53;5071637;28;20186;-73
2022/01/17 03:55:32;;;;;;;50.50;27.30;;;;;;;3.28;61.19;95095.75;5070854;28;20187;-75
2022/01/17 03:57:59;;;;;;;54.30;28.87;;;;;;;3.29;60.99;95099.13;5072317;28;20226;-74
2022/01/17 04:00:29;;;;;;;46.80;28.47;;;;;;;3.35;61.19;95106.34;5079626;28;20202;-76
2022/01/17 04:02:58;;;;;;;44.90;27.47;;;;;;;3.36;61.15;95108.78;5077743;28;20205;-74
2022/01/17 04:05:26;;;;;;;46.83;28.60;;;;;;;3.36;61.24;95110.50;5070845;28;20643;-73
2022/01/17 04:07:52;;;;;;;45.47;28.63;;;;;;;3.35;61.12;95112.22;5070769;28;20186;-76
2022/01/17 04:10:19;;;;;;;51.90;29.10;;;;;;;3.36;61.22;95113.03;5070723;28;20586;-75
2022/01/17 04:12:47;;;;;;;51.93;31.10;;;;;;;3.35;61.08;95116.47;5071064;28;20292;-76
2022/01/17 04:15:15;;;;;;;51.00;29.77;;;;;;;3.33;61.06;95111.50;5070450;28;20190;-75
2022/01/17 04:17:43;;;;;;;48.83;29.97;;;;;;;3.33;61.18;95115.75;5070856;28;20351;-74
2022/01/17 04:20:19;;;;;;;48.63;29.77;;;;;;;3.31;61.19;95120.88;5070654;28;20197;-75
2022/01/17 04:22:53;;;;;;;53.20;30.63;;;;;;;3.30;60.90;95111.66;5070857;28;20221;-74
2022/01/17 04:25:20;;;;;;;49.10;30.50;;;;;;;3.29;61.13;95117.63;5070632;28;20198;-73
2022/01/17 04:27:48;;;;;;;48.93;30.37;;;;;;;3.27;61.10;95116.88;5070905;28;20198;-76
2022/01/17 04:30:16;;;;;;;49.43;30.23;;;;;;;3.25;61.25;95106.03;5070625;28;20203;-76
2022/01/17 04:32:43;;;;;;;53.63;30.47;;;;;;;3.25;61.24;95098.47;5070653;28;20290;-74
2022/01/17 04:35:12;;;;;;;49.00;30.23;;;;;;;3.23;61.08;95102.78;5070272;28;20197;-74
2022/01/17 04:37:40;;;;;;;50.80;29.17;;;;;;;3.24;60.99;95097.66;5070397;28;20305;-74
2022/01/17 04:40:08;;;;;;;42.60;27.80;;;;;;;3.25;61.11;95103.53;5070043;28;20245;-73
2022/01/17 04:42:42;;;;;;;45.50;26.43;;;;;;;3.20;61.10;95091.13;5070456;28;20186;-74
2022/01/17 04:45:11;;;;;;;40.17;25.57;;;;;;;3.22;60.87;95094.38;5070052;28;20193;-76
2022/01/17 04:47:40;;;;;;;41.60;25.60;;;;;;;3.23;60.86;95102.78;5070635;28;20256;-76
2022/01/17 04:50:10;;;;;;;42.30;25.63;;;;;;;3.21;60.82;95090.22;5069911;28;20202;-74
2022/01/17 04:52:38;;;;;;;47.10;26.07;;;;;;;3.19;60.82;95092.00;5070391;28;20186;-75
2022/01/17 04:55:09;;;;;;;38.87;23.03;;;;;;;3.21;60.73;95090.22;5070256;28;20190;-74
2022/01/17 04:57:35;;;;;;;44.00;24.53;;;;;;;3.20;60.84;95088.59;5070221;28;20709;-74
2022/01/17 05:00:03;;;;;;;43.37;24.43;;;;;;;3.16;60.82;95082.09;5070206;28;20190;-76
2022/01/17 05:02:30;;;;;;;39.03;23.90;;;;;;;3.22;60.72;95096.91;5070332;28;20195;-75
2022/01/17 05:04:57;;;;;;;42.87;24.20;;;;;;;3.23;60.67;95090.94;5069945;28;20662;-74
2022/01/17 05:07:24;;;;;;;40.77;23.77;;;;;;;3.13;60.44;95073.84;5070425;28;20186;-74
2022/01/17 05:09:53;;;;;;;47.47;26.57;;;;;;;3.22;60.56;95091.84;5069776;28;20189;-75
2022/01/17 05:12:19;;;;;;;45.93;24.43;;;;;;;3.22;60.41;95094.38;5069781;28;20225;-76
2022/01/17 05:14:49;;;;;;;39.80;24.17;;;;;;;3.23;60.35;95087.59;5069941;28;20212;-74
2022/01/17 05:20:08;;;;;;;44.33;26.60;;;;;;;3.24;60.29;95092.59;4988434;28;20204;-76
2022/01/17 05:22:36;;;;;;;41.73;24.27;;;;;;;3.26;60.40;95095.03;4988753;28;20189;-75
2022/01/17 05:25:08;;;;;;;44.20;26.87;;;;;;;3.24;60.57;95097.66;4988118;28;20200;-75
2022/01/17 05:27:36;;;;;;;43.63;26.20;;;;;;;3.26;60.55;95107.66;4988623;28;20212;-75
2022/01/17 05:30:05;;;;;;;52.87;29.63;;;;;;;3.21;60.70;95092.75;4987952;28;20724;-76
2022/01/17 05:32:32;;;;;;;56.57;29.90;;;;;;;3.27;60.62;95110.09;4988205;28;20673;-76
2022/01/17 05:34:58;;;;;;;52.27;30.73;;;;;;;3.22;60.53;95098.63;4988378;28;20561;-74
2022/01/17 05:37:25;;;;;;;56.37;31.27;;;;;;;3.27;60.57;95091.59;4988340;28;20561;-73
2022/01/17 05:39:52;;;;;;;54.37;31.97;;;;;;;3.26;60.51;95089.97;4988684;28;20189;-72
2022/01/17 05:42:20;;;;;;;60.43;34.30;;;;;;;3.14;60.70;95085.59;4988651;28;20189;-72
2022/01/17 05:44:48;;;;;;;57.43;32.50;;;;;;;3.26;60.56;95105.94;4988237;28;20197;-73
2022/01/17 05:47:15;;;;;;;62.13;32.93;;;;;;;3.27;60.57;95111.81;4987855;28;20196;-72
2022/01/17 05:49:42;;;;;;;62.00;33.87;;;;;;;3.16;60.61;95102.31;4988164;28;20197;-74
2022/01/17 05:52:09;;;;;;;56.27;33.87;;;;;;;3.26;60.51;95108.47;4988163;28;20197;-72
2022/01/17 05:54:37;;;;;;;53.17;32.27;;;;;;;3.26;60.51;95108.47;4988605;28;20216;-74
2022/01/17 05:57:05;;;;;;;54.03;32.17;;;;;;;3.26;60.58;95110.19;5041131;28;20205;-75
2022/01/17 05:59:33;;;;;;;53.10;31.73;;;;;;;3.17;60.43;95101.41;5071310;28;20230;-75
2022/01/17 06:02:00;;;;;;;55.27;31.53;;;;;;;3.29;60.38;95111.75;5069740;28;20193;-73
2022/01/17 06:04:27;;;;;;;55.00;31.83;;;;;;;3.29;60.65;95120.16;5072560;28;20187;-74
2022/01/17 06:06:54;;;;;;;47.53;29.97;;;;;;;3.29;60.54;95127.72;5073776;28;20206;-75
2022/01/17 06:09:20;;;;;;;51.57;31.07;;;;;;;3.32;60.43;95122.50;5073973;28;20191;-77
2022/01/17 06:11:47;;;;;;;52.90;30.93;;;;;;;3.31;60.41;95117.53;5077409;28;20194;-76
2022/01/17 06:14:17;;;;;;;50.27;32.20;;;;;;;3.38;60.30;95119.63;5077842;28;20197;-75
2022/01/17 06:16:46;;;;;;;56.10;30.13;;;;;;;3.41;60.43;95123.69;5078783;28;20218;-78
2022/01/17 06:19:13;;;;;;;63.93;33.67;;;;;;;3.44;60.34;95119.28;5074716;28;20218;-74
2022/01/17 06:21:40;;;;;;;51.87;31.27;;;;;;;3.48;60.42;95123.28;5073641;28;20186;-76
2022/01/17 06:24:09;;;;;;;62.67;34.23;;;;;;;3.52;60.15;95116.34;5072818;28;20187;-75
2022/01/17 06:26:37;;;;;;;55.53;32.03;;;;;;;3.51;60.21;95109.69;5073056;28;20187;-74
2022/01/17 06:29:05;;;;;;;56.80;33.47;;;;;;;3.61;60.12;95133.53;5072907;28;20213;-73
2022/01/17 06:31:31;;;;;;;63.27;32.77;;;;;;;3.69;60.00;95128.06;5072404;28;20191;-72
2022/01/17 06:34:00;;;;;;;62.40;34.97;;;;;;;3.84;59.70;95118.78;5072549;28;20276;-74
2022/01/17 06:36:27;;;;;;;61.43;35.60;;;;;;;3.90;59.34;95093.97;5072636;28;20194;-73
2022/01/17 06:38:54;;;;;;;64.17;37.47;;;;;;;4.40;58.97;95119.78;5072174;28;20595;-74
2022/01/17 06:41:21;;;;;;;65.20;37.83;;;;;;;4.70;58.64;95100.22;5072306;28;20604;-72
2022/01/17 06:43:48;;;;;;;68.00;38.13;;;;;;;5.15;58.46;95113.56;5072687;28;20263;-73
2022/01/17 06:46:15;;;;;;;68.23;38.47;;;;;;;5.72;58.46;95120.16;5072344;28;20197;-73
2022/01/17 06:48:43;;;;;;;62.57;36.87;;;;;;;6.23;58.34;95132.97;5072599;28;20224;-72
2022/01/17 06:51:11;;;;;;;65.23;37.80;;;;;;;6.73;58.03;95127.03;5071924;28;20285;-75
2022/01/17 06:53:38;;;;;;;67.37;38.67;;;;;;;7.25;57.82;95136.22;5072715;28;20194;-74
2022/01/17 06:56:05;;;;;;;68.23;37.57;;;;;;;7.73;57.54;95125.22;5072148;28;20239;-75
2022/01/17 06:58:32;;;;;;;60.27;39.23;;;;;;;8.26;56.85;95128.97;5072715;28;20222;-75
2022/01/17 07:00:59;;;;;;;69.47;40.13;;;;;;;8.77;56.51;95135.44;5071892;28;20259;-75
2022/01/17 07:03:26;;;;;;;69.30;40.30;;;;;;;9.23;55.87;95127.63;5072610;28;20190;-76
2022/01/17 07:05:52;;;;;;;70.77;39.57;;;;;;;9.70;55.13;95129.94;5072416;28;20653;-75
2022/01/17 07:08:21;;;;;;;70.20;40.60;;;;;;;10.16;54.58;95132.19;5072075;28;20190;-73
2022/01/17 07:10:47;;;;;;;60.93;40.40;;;;;;;10.57;53.51;95117.78;5071974;28;20191;-76
2022/01/17 07:13:14;;;;;;;68.03;38.80;;;;;;;11.07;52.78;95132.41;5072110;28;20276;-71
2022/01/17 07:15:41;;;;;;;69.77;38.90;;;;;;;11.50;52.10;95127.78;5054951;28;20199;-77
2022/01/17 07:18:09;;;;;;;56.80;36.20;;;;;;;11.93;51.13;95134.34;5053304;28;20234;-73
2022/01/17 07:20:35;;;;;;;57.47;34.37;;;;;;;12.37;50.38;95133.91;5052598;28;20206;-73
2022/01/17 07:23:02;;;;;;;53.67;33.03;;;;;;;12.34;49.31;95078.53;5051824;28;20183;-76
2022/01/17 07:25:31;;;;;;;49.67;30.47;;;;;;;13.15;48.46;95150.66;5052007;28;20199;-73
2022/01/17 07:27:57;;;;;;;42.97;26.40;;;;;;;13.54;47.40;95171.84;5051763;28;20268;-74
2022/01/17 07:30:26;;;;;;;40.07;24.70;;;;;;;13.94;46.37;95162.13;5051139;28;20195;-73
2022/01/17 07:32:53;;;;;;;34.10;20.67;;;;;;;14.24;46.00;95148.91;5051024;28;20198;-74
2022/01/17 07:35:20;;;;;;;34.03;19.37;;;;;;;14.68;44.84;95161.81;5051014;28;20191;-73
2022/01/17 07:37:46;;;;;;;29.57;16.17;;;;;;;15.05;44.10;95158.16;5050470;28;20281;-73
2022/01/17 07:40:14;;;;;;;23.50;15.10;;;;;;;15.39;43.12;95144.44;5070167;28;20214;-74
2022/01/17 07:42:42;;;;;;;19.47;12.47;;;;;;;15.70;42.51;95137.78;5067720;28;20202;-76
2022/01/17 07:45:13;;;;;;;22.17;11.33;;;;;;;15.97;41.81;95116.06;5069898;28;20209;-74
2022/01/17 07:47:44;;;;;;;16.73;9.90;;;;;;;16.27;41.20;95108.63;5067669;28;20638;-76
2022/01/17 07:50:15;;;;;;;12.43;8.97;;;;;;;16.45;40.38;95092.97;5070451;28;20197;-74
2022/01/17 07:52:42;;;;;;;15.70;7.13;;;;;;;16.90;38.94;95128.59;5067681;28;20202;-74
2022/01/17 07:55:09;;;;;;;9.73;6.63;;;;;;;16.97;38.03;95111.47;5070588;28;20557;-74
2022/01/17 07:57:37;;;;;;;13.40;9.90;;;;;;;17.37;50.17;95163.97;5070175;28;20183;-75
2022/01/17 08:00:07;;;;;;;12.97;8.80;;;;;;;17.89;51.57;95204.03;5070037;28;20205;-73
2022/01/17 08:02:35;;;;;;;11.90;8.77;;;;;;;18.22;49.55;95226.16;5070214;28;20198;-74
2022/01/17 08:05:02;;;;;;;13.73;8.23;;;;;;;18.56;47.82;95217.16;5071516;28;20915;-74
2022/01/17 08:07:28;;;;;;;11.17;6.50;;;;;;;18.59;46.67;95203.06;5071222;28;20178;-73
2022/01/17 08:09:56;;;;;;;10.37;6.23;;;;;;;18.35;44.89;95173.81;5070141;28;20579;-76
2022/01/17 08:12:23;;;;;;;10.43;6.13;;;;;;;18.26;43.22;95160.09;5070475;28;20186;-76
2022/01/17 08:14:49;;;;;;;10.13;5.47;;;;;;;18.33;41.38;95149.03;5069877;28;20183;-73
2022/01/17 08:17:18;;;;;;;9.17;5.17;;;;;;;18.07;39.90;95101.03;5069844;28;20218;-77
2022/01/17 08:19:44;;;;;;;7.87;5.10;;;;;;;17.99;39.18;95137.31;5069971;28;20225;-77
2022/01/17 08:22:11;;;;;;;8.30;5.13;;;;;;;17.58;38.55;95110.88;5069368;28;20585;-76
2022/01/17 08:24:38;;;;;;;5.27;4.67;;;;;;;17.61;37.57;95134.59;5070167;28;20182;-77
2022/01/17 08:27:05;;;;;;;5.30;4.57;;;;;;;17.62;36.90;95159.50;5069341;28;20597;-78
2022/01/17 08:29:34;;;;;;;9.10;4.30;;;;;;;17.26;36.66;95192.75;5070010;28;20175;-74
2022/01/17 08:32:05;;;;;;;7.73;4.87;;;;;;;16.84;36.52;95216.25;5067391;28;20195;-76
2022/01/17 08:34:33;;;;;;;10.03;4.53;;;;;;;16.41;36.47;95220.78;5069215;28;20187;-78
2022/01/17 08:37:02;;;;;;;5.47;4.67;;;;;;;16.38;36.33;95250.28;5068887;28;20209;-76
2022/01/17 08:39:28;;;;;;;5.10;4.20;;;;;;;16.24;36.03;95222.53;5069680;28;20214;-75
2022/01/17 08:41:56;;;;;;;7.80;4.57;;;;;;;16.01;35.94;95188.78;5069711;28;20206;-75
2022/01/17 08:44:24;;;;;;;6.07;4.27;;;;;;;15.69;36.18;95184.38;5069662;28;20198;-71
2022/01/17 08:46:51;;;;;;;8.70;5.60;;;;;;;15.43;36.23;95195.53;5070018;28;20201;-72
2022/01/17 08:49:18;;;;;;;7.17;5.00;;;;;;;15.12;36.18;95161.72;5069728;28;20224;-75
2022/01/17 08:51:46;;;;;;;5.37;4.87;;;;;;;14.94;36.09;95164.38;5067833;28;20202;-75
2022/01/17 08:54:14;;;;;;;8.83;5.37;;;;;;;14.73;36.10;95120.97;5067723;28;20182;-74
2022/01/17 08:56:41;;;;;;;8.23;4.97;;;;;;;14.53;36.22;95086.09;5067663;28;20577;-74
2022/01/17 08:59:07;;;;;;;9.13;4.97;;;;;;;14.32;36.29;95089.78;5067336;28;20296;-74
2022/01/17 09:01:34;;;;;;;11.00;5.43;;;;;;;14.11;36.59;95111.66;5067098;28;20662;-74
2022/01/17 09:04:02;;;;;;;5.60;4.40;;;;;;;14.03;36.58;95104.69;5066986;28;20190;-75
2022/01/17 09:06:29;;;;;;;11.37;5.50;;;;;;;13.86;36.55;95052.34;5067184;28;20212;-74
2022/01/17 09:08:57;;;;;;;7.17;4.40;;;;;;;13.71;36.57;95054.59;5067627;28;20669;-76
2022/01/17 09:11:24;;;;;;;5.40;4.33;;;;;;;13.56;36.61;95048.38;5066941;28;20218;-73
2022/01/17 09:13:51;;;;;;;5.37;3.80;;;;;;;13.44;36.88;95054.69;5066934;28;20198;-74
2022/01/17 09:16:18;;;;;;;10.03;4.53;;;;;;;13.31;36.66;95055.06;5066296;28;20251;-74
2022/01/17 09:42:19;;;;;;;6.80;3.90;;;;;;;12.45;38.16;95064.75;5074050;28;20610;-77
2022/01/17 09:44:46;;;;;;;5.77;4.43;;;;;;;12.42;38.07;95080.41;5068070;28;20621;-74
2022/01/17 09:47:14;;;;;;;9.30;4.47;;;;;;;12.38;38.20;95071.38;5072731;28;20186;-75
2022/01/17 09:49:47;;;;;;;7.50;4.50;;;;;;;12.28;38.53;95063.72;5072163;28;20208;-77
2022/01/17 09:52:33;;;;;;;5.40;4.53;;;;;;;12.31;38.38;95083.97;5071364;28;20226;-78
2022/01/17 09:55:05;;;;;;;6.80;4.40;;;;;;;12.29;38.43;95085.84;5071531;28;20198;-74
2022/01/17 09:57:36;;;;;;;6.27;5.17;;;;;;;12.16;38.63;95057.13;5071335;28;20202;-73
2022/01/17 10:00:04;;;;;;;8.70;4.87;;;;;;;12.22;38.67;95077.09;5072302;28;20271;-73
2022/01/17 10:02:31;;;;;;;7.83;4.80;;;;;;;12.19;38.76;95093.56;5072438;28;20684;-72
2022/01/17 10:04:58;;;;;;;6.23;4.57;;;;;;;12.22;38.88;95088.16;5072611;28;20638;-75
2022/01/17 10:07:27;;;;;;;14.97;5.67;;;;;;;12.21;39.19;95096.78;5072696;28;20205;-74
2022/01/17 10:09:58;;;;;;;5.37;4.73;;;;;;;12.16;39.21;95104.09;5072358;28;20263;-76
2022/01/17 10:12:25;;;;;;;10.03;6.03;;;;;;;12.02;39.38;95078.88;5071928;28;20639;-74
2022/01/17 10:15:00;;;;;;;7.97;5.17;;;;;;;12.16;39.86;95103.28;5073514;28;20182;-72
2022/01/17 10:17:44;;;;;;;8.17;5.77;;;;;;;12.13;40.14;95129.19;5073153;28;20225;-75
2022/01/17 10:20:14;;;;;;;8.50;6.20;;;;;;;12.11;40.48;95108.00;5073287;28;20680;-75
2022/01/17 10:22:50;;;;;;;9.70;6.23;;;;;;;12.10;40.58;95107.22;5072914;28;20574;-73
2022/01/17 10:25:27;;;;;;;7.43;5.47;;;;;;;12.07;40.71;95106.66;5071828;28;20178;-73
2022/01/17 10:28:34;;;;;;;8.80;6.03;;;;;;;12.09;40.90;95104.75;5072523;28;20188;-72
2022/01/17 10:34:52;;;;;;;6.30;5.30;;;;;;;12.11;41.20;95097.75;5052859;28;20187;-71
2022/01/17 10:36:53;;;;;;;6.33;5.60;;;;;;;12.15;41.42;95088.84;5051707;28;20217;-72
2022/01/17 10:39:20;;;;;;;6.10;5.13;;;;;;;12.19;41.78;95092.75;5053208;28;20720;-73
2022/01/17 10:41:47;;;;;;;6.90;6.17;;;;;;;12.25;41.57;95079.38;5051896;28;20191;-72
2022/01/17 10:44:33;;;;;;;7.00;5.37;;;;;;;12.38;41.83;95102.97;5051919;28;20222;-72
2022/01/17 10:47:25;;;;;;;5.97;5.17;;;;;;;12.43;41.86;95085.41;5052091;28;20183;-74
2022/01/17 10:49:54;;;;;;;7.90;5.70;;;;;;;12.52;41.90;95079.47;5051100;28;20189;-72
2022/01/17 10:52:29;;;;;;;5.87;5.27;;;;;;;12.56;41.76;95079.97;5051881;28;20199;-72
2022/01/17 10:54:58;;;;;;;8.73;5.63;;;;;;;12.52;41.93;95073.50;5051668;28;20206;-71
2022/01/17 10:57:25;;;;;;;6.17;5.43;;;;;;;12.49;42.16;95079.72;5051663;28;20190;-72
2022/01/17 10:59:56;;;;;;;6.50;5.33;;;;;;;12.43;42.21;95087.16;5051391;28;20793;-74
2022/01/17 11:02:27;;;;;;;7.20;5.43;;;;;;;12.35;42.53;95081.91;5052375;28;20678;-71
2022/01/17 11:04:54;;;;;;;10.83;5.77;;;;;;;12.28;42.55;95073.97;5051274;28;20202;-73
2022/01/17 11:07:21;;;;;;;7.67;5.47;;;;;;;12.17;42.61;95071.56;5051737;28;20219;-75
2022/01/17 11:09:50;;;;;;;7.07;5.17;;;;;;;12.08;42.87;95064.69;5052039;28;20573;-73
2022/01/17 11:12:19;;;;;;;7.07;5.60;;;;;;;11.86;42.68;95037.63;5050458;28;20620;-73
2022/01/17 11:14:48;;;;;;;6.77;5.30;;;;;;;11.93;42.58;95064.31;5051353;28;20199;-70
2022/01/17 11:17:25;;;;;;;8.90;5.60;;;;;;;11.91;42.60;95061.88;5050088;28;20233;-73
2022/01/17 11:20:05;;;;;;;9.50;5.10;;;;;;;11.87;42.58;95050.28;5051127;28;20229;-74
2022/01/17 11:22:32;;;;;;;7.70;5.37;;;;;;;11.79;42.45;95045.84;5051263;28;20282;-72
2022/01/17 11:25:00;;;;;;;5.73;5.13;;;;;;;11.67;42.50;95028.97;5049364;28;20191;-74
2022/01/17 11:27:27;;;;;;;6.53;5.43;;;;;;;11.58;42.52;95026.44;5050811;28;20282;-72
2022/01/17 11:29:55;;;;;;;7.43;4.57;;;;;;;11.47;42.58;95023.03;5050984;28;20198;-74
2022/01/17 11:32:22;;;;;;;6.43;4.90;;;;;;;11.40;42.58;95019.44;5050768;28;20217;-76
2022/01/17 11:34:50;;;;;;;5.27;4.63;;;;;;;11.30;42.79;95019.41;5050587;28;20199;-76
2022/01/17 11:37:20;;;;;;;5.30;4.73;;;;;;;11.19;42.89;95022.09;5050822;28;20190;-72
2022/01/17 11:39:49;;;;;;;5.67;5.07;;;;;;;11.11;43.03;95028.81;5050175;28;20682;-72
2022/01/17 11:42:37;;;;;;;7.20;4.90;;;;;;;11.09;42.75;95038.38;5049801;28;20187;-71
2022/01/17 11:45:20;;;;;;;4.37;3.83;;;;;;;11.07;42.73;95043.63;5051003;28;20195;-73
2022/01/17 11:47:49;;;;;;;7.23;3.83;;;;;;;11.03;42.73;95037.16;5050652;28;20194;-72
2022/01/17 11:50:46;;;;;;;6.70;4.20;;;;;;;10.99;42.80;95039.16;5050267;28;20643;-73
2022/01/17 11:53:50;;;;;;;5.33;4.10;;;;;;;10.98;43.00;95034.19;5051109;28;20665;-72
2022/01/17 11:56:40;;;;;;;5.47;3.83;;;;;;;10.76;42.71;94999.41;5052645;28;20226;-74
2022/01/17 11:59:42;;;;;;;5.90;4.37;;;;;;;10.93;42.81;95011.56;5055501;28;20572;-74
2022/01/17 12:02:29;;;;;;;7.70;4.57;;;;;;;10.94;42.82;95009.81;5053460;28;20244;-76
2022/01/17 12:05:44;;;;;;;6.00;4.10;;;;;;;11.03;42.65;95002.13;5051418;28;20194;-73
2022/01/17 12:08:16;;;;;;;5.17;4.13;;;;;;;11.20;42.61;95007.56;5051087;28;20191;-73
2022/01/17 12:10:46;;;;;;;5.47;4.37;;;;;;;11.36;42.65;95022.38;5050315;28;20203;-74
2022/01/17 12:13:39;;;;;;;5.87;4.00;;;;;;;11.47;42.57;95014.56;5050741;28;20182;-74
2022/01/17 12:16:17;;;;;;;4.50;3.90;;;;;;;11.56;42.43;95004.31;5050583;28;20546;-73
2022/01/17 12:18:47;;;;;;;5.33;4.07;;;;;;;11.68;42.44;94984.47;5050484;28;20278;-75
2022/01/17 12:21:19;;;;;;;6.10;3.90;;;;;;;11.78;42.21;94997.28;5050813;28;20218;-74